Time;durP1;ratioP1;P1;durP2;ratioP2;P2;SDS_P1;SDS_P2;PMS_P1;PMS_P2;Temp;Humidity;BMP_temperature;BMP_pressure;BME280_temperature;BME280_humidity;BME280_pressure;Samples;Min_cycle;Max_cycle;Signal;HPM_P1;HPM_P2
2021/05/30 00:00:46;;;;;;;4.15;3.60;;;;;;;18.77;65.54;100739.47;4998588;28;102455;-65
2021/05/30 00:03:13;;;;;;;4.38;3.25;;;;;;;18.77;65.48;100728.44;5002518;28;102787;-64
2021/05/30 00:05:41;;;;;;;3.38;3.08;;;;;;;18.78;65.88;100735.56;5000688;28;103810;-64
2021/05/30 00:08:07;;;;;;;3.70;3.30;;;;;;;18.77;65.70;100731.19;4992233;28;104061;-64
2021/05/30 00:10:34;;;;;;;3.78;3.47;;;;;;;18.77;65.50;100733.16;4989795;28;102188;-64
2021/05/30 00:13:02;;;;;;;6.00;3.08;;;;;;;18.78;65.15;100732.00;4996999;28;102668;-65
2021/05/30 00:15:30;;;;;;;3.67;3.37;;;;;;;18.77;65.64;100739.47;5008225;28;102931;-64
2021/05/30 00:17:57;;;;;;;3.90;3.50;;;;;;;18.78;65.58;100741.06;4990097;28;103967;-64
2021/05/30 00:20:23;;;;;;;3.55;3.25;;;;;;;18.77;65.54;100739.47;5001333;28;102891;-64
2021/05/30 00:22:53;;;;;;;3.42;3.13;;;;;;;18.77;65.18;100744.97;5005342;28;102395;-64
2021/05/30 00:25:20;;;;;;;3.28;2.97;;;;;;;18.76;65.39;100748.88;4996266;28;102522;-64
2021/05/30 00:27:47;;;;;;;4.35;3.30;;;;;;;18.77;65.54;100756.00;4992171;28;104354;-65
2021/05/30 00:30:15;;;;;;;3.88;2.90;;;;;;;18.77;65.42;100758.75;4998626;28;102486;-64
2021/05/30 00:32:42;;;;;;;3.00;2.67;;;;;;;18.76;65.44;100757.16;5004894;28;102445;-65
2021/05/30 00:35:10;;;;;;;3.15;2.95;;;;;;;18.76;65.21;100759.91;5003975;28;102355;-66
2021/05/30 00:37:36;;;;;;;3.78;2.90;;;;;;;18.76;65.59;100748.88;4991492;28;103891;-64
2021/05/30 00:40:05;;;;;;;3.60;3.30;;;;;;;18.75;65.17;100752.75;5001743;28;102345;-64
2021/05/30 00:42:32;;;;;;;3.72;2.90;;;;;;;18.75;65.16;100752.75;4986359;28;102539;-64
2021/05/30 00:44:59;;;;;;;2.97;2.72;;;;;;;18.75;65.21;100758.25;4987369;28;102717;-64
2021/05/30 00:47:25;;;;;;;4.07;3.10;;;;;;;18.75;65.21;100752.75;4993865;28;102829;-64
2021/05/30 00:49:52;;;;;;;3.55;3.05;;;;;;;18.75;65.67;100761.03;4987385;28;102634;-64
2021/05/30 00:52:18;;;;;;;4.68;3.28;;;;;;;18.75;65.79;100763.78;5001750;28;102078;-65
2021/05/30 00:54:46;;;;;;;4.95;3.10;;;;;;;18.73;65.72;100766.88;4999896;28;102408;-65
2021/05/30 00:57:14;;;;;;;5.30;3.30;;;;;;;18.73;65.68;100766.06;5002516;28;102875;-64
2021/05/30 00:59:42;;;;;;;4.40;3.25;;;;;;;18.73;65.40;100764.13;5004182;28;103135;-64
2021/05/30 01:02:08;;;;;;;3.77;3.00;;;;;;;18.73;65.06;100766.06;4991572;28;102447;-64
2021/05/30 01:04:35;;;;;;;3.28;2.92;;;;;;;18.74;65.52;100764.94;5002162;28;102310;-65
2021/05/30 01:07:03;;;;;;;3.67;3.38;;;;;;;18.73;65.12;100768.81;5003191;28;103941;-64
2021/05/30 01:09:33;;;;;;;3.88;3.35;;;;;;;18.73;65.29;100772.38;4998028;28;102588;-64
2021/05/30 01:12:03;;;;;;;4.47;3.00;;;;;;;18.73;65.44;100769.63;4999974;28;102375;-66
2021/05/30 01:14:31;;;;;;;3.80;2.80;;;;;;;18.73;65.73;100761.34;5004176;28;102633;-64
2021/05/30 01:16:58;;;;;;;3.35;3.00;;;;;;;18.72;65.61;100762.50;4999746;28;104102;-65
2021/05/30 01:19:28;;;;;;;3.40;3.10;;;;;;;18.72;65.50;100764.44;4992461;28;102565;-64
2021/05/30 01:21:58;;;;;;;3.47;2.75;;;;;;;18.74;65.41;100756.66;5000654;28;102211;-66
2021/05/30 01:24:25;;;;;;;3.17;2.88;;;;;;;18.73;65.14;100749.53;4999968;28;102519;-64
2021/05/30 01:26:52;;;;;;;3.13;2.90;;;;;;;18.71;65.75;100755.34;5005735;28;104156;-64
2021/05/30 01:29:18;;;;;;;2.70;2.50;;;;;;;18.70;65.67;100750.94;5000732;28;102204;-64
2021/05/30 01:31:46;;;;;;;4.03;2.80;;;;;;;18.70;65.88;100750.94;4999982;28;102052;-64
2021/05/30 01:34:12;;;;;;;3.15;2.83;;;;;;;18.70;65.46;100756.47;5005331;28;102112;-64
2021/05/30 01:36:38;;;;;;;2.95;2.67;;;;;;;18.72;65.62;100758.94;5001623;28;104257;-64
2021/05/30 01:39:05;;;;;;;4.40;2.83;;;;;;;18.72;65.82;100758.94;5008160;28;102287;-64
2021/05/30 01:41:33;;;;;;;3.40;3.10;;;;;;;18.71;65.63;100765.56;5000735;28;102689;-64
2021/05/30 01:43:59;;;;;;;2.60;2.40;;;;;;;18.70;65.30;100761.16;5004265;28;104908;-64
2021/05/30 01:46:27;;;;;;;2.67;2.25;;;;;;;18.70;65.30;100761.16;4993116;28;103986;-64
2021/05/30 01:48:54;;;;;;;2.80;2.53;;;;;;;18.69;65.40;100763.13;4993465;28;102622;-64
2021/05/30 01:51:20;;;;;;;3.15;2.50;;;;;;;18.69;65.55;100763.13;4992340;28;102580;-65
2021/05/30 01:58:43;;;;;;;2.95;2.72;;;;;;;18.70;65.04;100761.16;4994609;28;102654;-64
2021/05/30 02:01:14;;;;;;;3.33;2.80;;;;;;;18.69;65.21;100757.59;5006383;28;103042;-65
2021/05/30 02:03:44;;;;;;;2.55;2.35;;;;;;;18.68;65.18;100757.91;4993540;28;102646;-64
2021/05/30 02:06:14;;;;;;;3.83;2.83;;;;;;;18.69;65.41;100751.28;4996762;28;103970;-64
2021/05/30 02:08:47;;;;;;;3.28;2.63;;;;;;;18.68;65.71;100752.41;4982612;28;102295;-64
2021/05/30 02:11:14;;;;;;;2.92;2.72;;;;;;;18.69;65.39;100756.81;5005046;28;103206;-64
2021/05/30 02:13:43;;;;;;;2.75;2.30;;;;;;;18.67;65.25;100757.09;4993570;28;102412;-65
2021/05/30 02:16:09;;;;;;;4.05;2.75;;;;;;;18.67;65.33;100761.81;5006100;28;103982;-65
2021/05/30 02:18:35;;;;;;;2.75;2.55;;;;;;;18.68;65.46;100772.53;4979262;28;102607;-65
2021/05/30 02:21:04;;;;;;;2.58;2.30;;;;;;;18.68;65.79;100774.44;4987669;28;102397;-65
2021/05/30 02:23:31;;;;;;;2.67;2.47;;;;;;;18.67;65.27;100770.09;4999064;28;102388;-65
2021/05/30 02:25:57;;;;;;;2.38;2.17;;;;;;;18.67;65.45;100779.16;4992574;28;104419;-64
2021/05/30 02:28:24;;;;;;;2.90;2.67;;;;;;;18.67;65.38;100778.34;4993438;28;102195;-64
2021/05/30 02:30:51;;;;;;;3.47;2.40;;;;;;;18.66;65.85;100768.47;4999907;28;102326;-64
2021/05/30 02:33:18;;;;;;;2.88;2.67;;;;;;;18.67;65.27;100772.84;4985565;28;102393;-64
2021/05/30 02:35:44;;;;;;;3.22;2.75;;;;;;;18.66;65.93;100776.75;5001733;28;103492;-64
2021/05/30 02:38:11;;;;;;;2.42;2.22;;;;;;;18.66;65.16;100774.78;4988703;28;102580;-64
2021/05/30 02:40:38;;;;;;;2.88;2.55;;;;;;;18.67;65.81;100781.09;5001494;28;101999;-64
2021/05/30 02:43:06;;;;;;;2.63;2.40;;;;;;;18.66;65.31;100773.97;4979067;28;105633;-64
2021/05/30 02:45:32;;;;;;;4.13;2.55;;;;;;;18.66;65.32;100788.56;4992715;28;103711;-64
2021/05/30 02:48:00;;;;;;;3.70;2.90;;;;;;;18.67;65.16;100789.38;5002358;28;102517;-64
2021/05/30 02:50:27;;;;;;;2.55;2.35;;;;;;;18.67;65.30;100794.88;4975840;28;102523;-64
2021/05/30 02:52:53;;;;;;;2.55;2.35;;;;;;;18.66;65.41;100798.78;4967873;28;102097;-64
2021/05/30 02:55:20;;;;;;;2.55;2.35;;;;;;;18.66;65.49;100798.78;5002979;28;103993;-65
2021/05/30 02:57:47;;;;;;;2.40;2.20;;;;;;;18.66;65.53;100807.88;4999983;28;102472;-65
2021/05/30 03:00:15;;;;;;;3.35;2.50;;;;;;;18.67;65.27;100811.44;5001295;28;102336;-64
2021/05/30 03:02:41;;;;;;;3.08;2.38;;;;;;;18.66;65.33;100807.88;4986818;28;102719;-64
2021/05/30 03:05:10;;;;;;;3.13;2.58;;;;;;;18.66;65.42;100799.59;4988981;28;104057;-65
2021/05/30 03:07:37;;;;;;;3.10;2.38;;;;;;;18.66;65.22;100802.34;5001453;28;102418;-65
2021/05/30 03:10:04;;;;;;;3.05;2.55;;;;;;;18.65;65.42;100797.19;4998555;28;102128;-64
2021/05/30 03:12:32;;;;;;;2.47;2.20;;;;;;;18.66;65.68;100798.78;4989709;28;103759;-64
2021/05/30 03:14:58;;;;;;;2.55;2.33;;;;;;;18.66;65.20;100809.81;4994213;28;103732;-65
2021/05/30 03:17:27;;;;;;;2.88;2.50;;;;;;;18.66;65.48;100802.34;4994026;28;102347;-65
2021/05/30 03:19:54;;;;;;;2.50;2.30;;;;;;;18.67;65.16;100806.72;5000838;28;102684;-65
2021/05/30 03:22:22;;;;;;;2.70;2.50;;;;;;;18.67;65.81;100800.41;4994411;28;102354;-65
2021/05/30 03:24:48;;;;;;;2.80;2.60;;;;;;;18.68;65.62;100807.53;5004915;28;104011;-63
2021/05/30 03:27:15;;;;;;;3.00;2.80;;;;;;;18.68;65.39;100802.03;5000271;28;102494;-66
2021/05/30 03:29:41;;;;;;;3.50;3.20;;;;;;;18.67;65.50;100805.91;4992026;28;102486;-65
2021/05/30 03:32:08;;;;;;;3.28;2.97;;;;;;;18.67;65.41;100795.69;4995200;28;102254;-65
2021/05/30 03:34:34;;;;;;;3.05;2.85;;;;;;;18.68;65.31;100793.75;4999691;28;104010;-65
2021/05/30 03:37:02;;;;;;;3.25;2.80;;;;;;;18.69;66.08;100798.16;4994050;28;102095;-64
2021/05/30 03:39:31;;;;;;;2.90;2.60;;;;;;;18.68;65.97;100797.34;5004360;28;102481;-64
2021/05/30 03:42:06;;;;;;;2.58;2.38;;;;;;;18.68;65.62;100802.03;5007372;28;102663;-64
2021/05/30 03:44:33;;;;;;;2.63;2.42;;;;;;;18.69;65.70;100804.47;4991341;28;103698;-64
2021/05/30 03:46:59;;;;;;;2.33;2.13;;;;;;;18.69;65.93;100804.47;4997856;28;102083;-65
2021/05/30 03:49:26;;;;;;;2.60;2.40;;;;;;;18.70;66.22;100799.75;4997746;28;102507;-64
2021/05/30 03:51:52;;;;;;;3.05;2.28;;;;;;;18.70;66.24;100797.00;4997910;28;102580;-64
2021/05/30 03:54:19;;;;;;;3.50;2.30;;;;;;;18.69;65.83;100803.66;5005867;28;103975;-65
2021/05/30 03:56:47;;;;;;;2.65;2.30;;;;;;;18.70;66.35;100805.28;5003534;28;102669;-64
2021/05/30 03:59:14;;;;;;;2.30;2.10;;;;;;;18.69;66.26;100804.47;4995070;28;102429;-65
2021/05/30 04:01:40;;;;;;;2.60;2.33;;;;;;;18.70;66.00;100805.28;5001575;28;102389;-64
2021/05/30 04:04:07;;;;;;;3.08;2.45;;;;;;;18.71;65.74;100801.41;4996040;28;104187;-64
2021/05/30 04:06:33;;;;;;;2.58;2.38;;;;;;;18.71;66.18;100806.91;4992700;28;102428;-66
2021/05/30 04:09:00;;;;;;;2.53;2.33;;;;;;;18.70;65.99;100811.59;4993644;28;102569;-64
2021/05/30 04:11:26;;;;;;;2.70;2.50;;;;;;;18.71;66.18;100817.94;5007059;28;102845;-64
2021/05/30 04:13:54;;;;;;;2.47;2.28;;;;;;;18.71;65.68;100809.69;4998377;28;103503;-65
2021/05/30 04:16:21;;;;;;;2.58;2.20;;;;;;;18.71;66.07;100807.72;4997715;28;102486;-64
2021/05/30 04:18:47;;;;;;;2.63;2.42;;;;;;;18.72;66.25;100825.09;4998586;28;102508;-65
2021/05/30 04:21:14;;;;;;;2.95;2.42;;;;;;;18.73;65.80;100821.19;4996681;28;102594;-65
2021/05/30 04:23:40;;;;;;;2.60;2.40;;;;;;;18.74;66.21;100822.81;5008111;28;103811;-64
2021/05/30 04:26:07;;;;;;;2.70;2.50;;;;;;;18.72;66.10;100831.44;5001524;28;102532;-65
2021/05/30 04:28:34;;;;;;;2.33;2.13;;;;;;;18.75;66.14;100832.69;5006022;28;102539;-64
2021/05/30 04:31:01;;;;;;;3.13;2.25;;;;;;;18.75;65.68;100832.69;4994307;28;102892;-65
2021/05/30 04:33:28;;;;;;;2.50;2.03;;;;;;;18.75;66.33;100829.13;5000357;28;103713;-64
2021/05/30 04:35:55;;;;;;;2.33;2.17;;;;;;;18.76;65.93;100826.06;4995878;28;102359;-64
2021/05/30 04:38:22;;;;;;;2.25;2.10;;;;;;;18.76;66.03;100826.06;5002491;28;102674;-65
2021/05/30 04:40:49;;;;;;;2.45;2.25;;;;;;;18.76;65.87;100834.34;5002910;28;102797;-65
2021/05/30 04:43:16;;;;;;;2.38;2.17;;;;;;;18.76;66.03;100828.84;4991562;28;104067;-64
2021/05/30 04:45:43;;;;;;;2.60;2.40;;;;;;;18.76;66.08;100831.59;4993882;28;102913;-65
2021/05/30 04:48:11;;;;;;;3.03;2.40;;;;;;;18.76;65.71;100837.09;4995008;28;102360;-65
2021/05/30 04:50:38;;;;;;;2.60;2.40;;;;;;;18.76;66.38;100834.34;4990564;28;102951;-65
2021/05/30 04:53:05;;;;;;;2.63;2.42;;;;;;;18.77;65.96;100838.72;4989835;28;103828;-65
2021/05/30 04:55:31;;;;;;;2.20;2.10;;;;;;;18.76;65.88;100828.84;5002192;28;102385;-65
2021/05/30 04:57:59;;;;;;;2.22;2.00;;;;;;;18.77;66.01;100833.19;5000124;28;103962;-65
2021/05/30 05:00:25;;;;;;;2.53;2.33;;;;;;;18.78;66.35;100834.00;5000770;28;102736;-65
2021/05/30 05:02:52;;;;;;;3.08;2.33;;;;;;;18.78;65.74;100828.50;4977164;28;104151;-65
2021/05/30 05:05:19;;;;;;;3.65;2.67;;;;;;;18.78;66.20;100829.31;4994781;28;104029;-65
2021/05/30 05:07:46;;;;;;;2.78;2.25;;;;;;;18.80;65.95;100829.81;4990129;28;103458;-65
2021/05/30 05:10:13;;;;;;;2.78;2.58;;;;;;;18.80;66.06;100820.72;4998881;28;103685;-65
2021/05/30 05:12:40;;;;;;;2.58;2.38;;;;;;;18.81;66.05;100822.34;4999785;28;104137;-64
2021/05/30 05:15:08;;;;;;;2.58;2.38;;;;;;;18.81;66.42;100828.66;4999414;28;102706;-65
2021/05/30 05:17:35;;;;;;;2.47;2.27;;;;;;;18.82;66.03;100827.50;4994390;28;102196;-65
2021/05/30 05:20:01;;;;;;;2.50;2.30;;;;;;;18.82;65.72;100835.78;4994748;28;103002;-65
2021/05/30 05:22:29;;;;;;;2.75;2.55;;;;;;;18.82;66.33;100838.53;4998963;28;104353;-65
2021/05/30 05:24:57;;;;;;;3.30;2.55;;;;;;;18.83;66.12;100837.44;5001514;28;102365;-65
2021/05/30 05:27:24;;;;;;;2.60;2.40;;;;;;;18.84;65.90;100833.53;4991886;28;102134;-65
2021/05/30 05:29:50;;;;;;;2.50;2.30;;;;;;;18.85;66.29;100846.16;5006439;28;102890;-65
2021/05/30 05:32:17;;;;;;;2.53;2.33;;;;;;;18.86;66.21;100842.31;4986668;28;103914;-64
2021/05/30 05:34:45;;;;;;;2.70;2.50;;;;;;;18.89;66.02;100838.88;4995819;28;102190;-65
2021/05/30 05:37:12;;;;;;;3.00;2.80;;;;;;;18.91;65.85;100836.63;5000378;28;102279;-65
2021/05/30 05:39:39;;;;;;;2.92;2.72;;;;;;;18.95;65.54;100839.53;4994398;28;102893;-65
2021/05/30 05:42:07;;;;;;;31.10;4.07;;;;;;;18.96;65.99;100836.44;4983011;28;103939;-65
2021/05/30 05:44:33;;;;;;;2.78;2.50;;;;;;;18.98;65.33;100832.56;5001283;28;105090;-65
2021/05/30 05:47:00;;;;;;;3.00;2.80;;;;;;;19.00;65.92;100841.31;4977490;28;102456;-65
2021/05/30 05:49:26;;;;;;;3.08;2.78;;;;;;;19.00;65.48;100841.31;5008278;28;102069;-65
2021/05/30 05:51:53;;;;;;;4.18;2.58;;;;;;;18.99;65.92;100840.50;4995144;28;104152;-65
2021/05/30 05:54:19;;;;;;;2.65;2.45;;;;;;;19.00;65.61;100846.81;5002804;28;102520;-65
2021/05/30 05:56:47;;;;;;;2.65;2.47;;;;;;;19.01;65.48;100853.97;5003886;28;102386;-67
2021/05/30 05:59:13;;;;;;;2.70;2.40;;;;;;;19.04;66.03;100853.31;4999641;28;102865;-65
2021/05/30 06:01:40;;;;;;;2.72;2.42;;;;;;;19.04;65.94;100853.31;5003368;28;103858;-65
2021/05/30 06:04:06;;;;;;;2.53;2.33;;;;;;;19.05;65.70;100849.44;5004535;28;102074;-65
2021/05/30 06:06:33;;;;;;;2.97;2.72;;;;;;;19.06;65.77;100851.06;4991183;28;102601;-65
2021/05/30 06:09:00;;;;;;;2.67;2.47;;;;;;;19.06;65.54;100845.53;4998402;28;102341;-65
2021/05/30 06:11:27;;;;;;;3.30;2.65;;;;;;;19.05;65.44;100846.69;4992293;28;103328;-65
2021/05/30 06:13:54;;;;;;;6.72;5.05;;;;;;;19.05;65.41;100838.41;4985094;28;102705;-65
2021/05/30 06:16:21;;;;;;;5.43;3.90;;;;;;;19.06;66.02;100840.81;4998404;28;102509;-65
2021/05/30 06:18:47;;;;;;;5.65;4.53;;;;;;;19.09;65.83;100833.84;4991021;28;102863;-65
2021/05/30 06:21:14;;;;;;;4.63;3.83;;;;;;;19.10;65.44;100840.97;5001712;28;103956;-65
2021/05/30 06:23:40;;;;;;;5.18;4.28;;;;;;;19.12;65.72;100827.69;5003862;28;102606;-65
2021/05/30 06:26:10;;;;;;;4.03;3.53;;;;;;;19.14;65.27;100828.16;5001487;28;102110;-64
2021/05/30 06:28:37;;;;;;;4.47;3.75;;;;;;;19.16;65.53;100823.13;4995152;28;102366;-66
2021/05/30 06:31:05;;;;;;;5.32;3.42;;;;;;;19.17;65.20;100824.75;4992508;28;103678;-65
2021/05/30 06:33:32;;;;;;;3.97;3.53;;;;;;;19.18;65.46;100826.34;5004488;28;102358;-64
2021/05/30 06:35:58;;;;;;;5.30;3.80;;;;;;;19.19;65.38;100839.03;4995059;28;102870;-65
2021/05/30 06:38:25;;;;;;;5.18;4.38;;;;;;;19.20;65.64;100835.94;5006612;28;102313;-65
2021/05/30 06:40:51;;;;;;;4.45;4.05;;;;;;;19.22;65.49;100841.13;5015435;27;103723;-65
2021/05/30 06:43:18;;;;;;;4.88;3.72;;;;;;;19.24;65.39;100844.38;5005835;28;102509;-65
2021/05/30 06:45:44;;;;;;;5.55;4.38;;;;;;;19.24;65.68;100847.13;4998986;28;102443;-65
2021/05/30 06:48:13;;;;;;;4.53;3.85;;;;;;;19.25;65.47;100854.25;5000169;28;103863;-65
2021/05/30 06:50:39;;;;;;;3.92;3.53;;;;;;;19.26;65.37;100855.91;4995757;28;102721;-65
2021/05/30 06:53:06;;;;;;;4.15;3.72;;;;;;;19.27;65.25;100845.69;4992540;28;102512;-65
2021/05/30 06:55:32;;;;;;;5.72;4.50;;;;;;;19.26;65.62;100844.88;4999571;28;102868;-65
2021/05/30 06:57:59;;;;;;;3.90;3.50;;;;;;;19.27;65.48;100849.25;4999351;28;102211;-65
2021/05/30 07:00:25;;;;;;;4.10;3.55;;;;;;;19.27;65.27;100845.69;4998674;28;103880;-65
2021/05/30 07:02:52;;;;;;;4.65;4.18;;;;;;;19.28;65.46;100852.81;5003868;28;102103;-65
2021/05/30 07:05:22;;;;;;;4.90;3.20;;;;;;;19.27;65.52;100843.72;4998017;28;102205;-65
2021/05/30 07:07:49;;;;;;;4.05;3.67;;;;;;;19.28;65.52;100844.53;4989372;28;102558;-65
2021/05/30 07:10:16;;;;;;;4.10;3.80;;;;;;;19.28;64.94;100852.81;4982669;28;104107;-65
2021/05/30 07:12:42;;;;;;;4.63;3.75;;;;;;;19.28;65.00;100850.84;5004400;28;102647;-65
2021/05/30 07:15:10;;;;;;;4.00;3.60;;;;;;;19.28;65.18;100848.09;5003877;28;102229;-65
2021/05/30 07:17:38;;;;;;;5.20;3.67;;;;;;;19.31;65.59;100852.16;4994510;28;102518;-65
2021/05/30 07:20:06;;;;;;;4.20;3.80;;;;;;;19.30;65.35;100854.13;5000732;28;103935;-64
2021/05/30 07:22:34;;;;;;;3.60;3.30;;;;;;;19.31;65.43;100850.22;4994385;28;102133;-65
2021/05/30 07:25:01;;;;;;;4.38;3.80;;;;;;;19.32;65.03;100843.53;4996857;28;102541;-65
2021/05/30 07:27:27;;;;;;;3.70;3.40;;;;;;;19.32;65.40;100849.06;4995398;28;103795;-65
2021/05/30 07:29:54;;;;;;;3.30;3.00;;;;;;;19.33;65.52;100858.97;4995428;28;104067;-65
2021/05/30 07:32:21;;;;;;;3.72;3.38;;;;;;;19.31;65.17;100858.50;4981240;28;103570;-65
2021/05/30 07:34:48;;;;;;;4.05;3.75;;;;;;;19.31;65.69;100857.69;4980603;28;104012;-65
2021/05/30 07:37:15;;;;;;;10.75;4.47;;;;;;;19.36;65.47;100860.25;4987166;28;103994;-62
2021/05/30 07:39:44;;;;;;;9.95;3.65;;;;;;;19.42;64.16;100858.97;4986856;28;103656;-63
2021/05/30 07:42:10;;;;;;;5.63;2.92;;;;;;;19.51;63.32;100858.94;4981599;28;103997;-63
2021/05/30 07:44:37;;;;;;;10.88;2.95;;;;;;;19.57;62.55;100855.66;4979403;28;103516;-63
2021/05/30 07:47:05;;;;;;;6.53;2.50;;;;;;;19.63;62.32;100851.63;4979685;28;103697;-63
2021/05/30 07:49:31;;;;;;;10.60;2.72;;;;;;;19.65;62.16;100860.41;4992440;28;103891;-64
2021/05/30 07:51:58;;;;;;;6.82;2.47;;;;;;;19.65;62.14;100859.56;4999475;28;102336;-63
2021/05/30 07:54:25;;;;;;;3.35;2.67;;;;;;;19.64;61.88;100857.97;4984486;28;103365;-63
2021/05/30 07:56:52;;;;;;;2.85;2.45;;;;;;;19.65;61.72;100859.56;4995803;28;103894;-63
2021/05/30 07:59:20;;;;;;;3.05;2.50;;;;;;;19.63;61.86;100859.91;4983524;28;103928;-63
2021/05/30 08:01:48;;;;;;;3.40;3.10;;;;;;;19.62;61.40;100857.47;4989416;28;102128;-63
2021/05/30 08:04:14;;;;;;;5.07;3.17;;;;;;;19.61;61.67;100858.59;5006738;28;102415;-62
2021/05/30 08:06:41;;;;;;;4.55;3.17;;;;;;;19.59;61.25;100855.34;5003614;28;102840;-63
2021/05/30 08:09:08;;;;;;;4.95;3.70;;;;;;;19.59;61.46;100864.44;4995581;28;103998;-63
2021/05/30 08:11:57;;;;;;;4.35;3.40;;;;;;;19.61;61.54;100862.16;5003992;28;102688;-63
2021/05/30 08:14:24;;;;;;;4.93;2.80;;;;;;;19.65;62.14;100863.16;5003346;28;102526;-63
2021/05/30 08:16:52;;;;;;;2.63;2.25;;;;;;;19.66;62.09;100869.50;5000541;28;102531;-63
2021/05/30 08:19:19;;;;;;;4.50;2.50;;;;;;;19.65;61.44;100867.84;4988367;28;103912;-63
2021/05/30 08:22:02;;;;;;;2.95;2.47;;;;;;;19.68;61.73;100875.50;5003509;28;102602;-63
2021/05/30 08:24:29;;;;;;;2.42;2.22;;;;;;;19.70;61.46;100872.41;4991751;28;102524;-63
2021/05/30 08:26:56;;;;;;;4.28;2.40;;;;;;;19.74;61.42;100871.41;4973454;28;102857;-63
2021/05/30 08:29:24;;;;;;;5.72;2.40;;;;;;;19.74;60.78;100878.91;4994616;28;104030;-63
2021/05/30 08:31:51;;;;;;;3.42;2.45;;;;;;;19.73;60.36;100880.84;5004629;28;102197;-63
2021/05/30 08:34:18;;;;;;;3.28;2.20;;;;;;;19.74;60.10;100881.66;4979723;28;102267;-63
2021/05/30 08:36:45;;;;;;;2.78;2.00;;;;;;;19.75;59.71;100884.06;4995872;28;102373;-63
2021/05/30 08:39:13;;;;;;;3.73;2.07;;;;;;;19.75;60.17;100884.06;5000990;28;104209;-64
2021/05/30 08:41:41;;;;;;;2.47;1.80;;;;;;;19.77;59.87;100892.06;4977028;28;103531;-63
2021/05/30 08:44:10;;;;;;;;;;;;;;;19.80;60.53;100891.38;4994013;28;102195;-63
2021/05/30 08:46:36;;;;;;;2.92;2.00;;;;;;;19.79;60.49;100885.03;5005963;28;102959;-63
2021/05/30 08:49:05;;;;;;;2.03;1.63;;;;;;;19.79;60.29;100890.56;5000332;28;103396;-63
2021/05/30 08:51:34;;;;;;;3.25;1.70;;;;;;;19.81;60.43;100891.06;4979181;28;103638;-63
2021/05/30 08:54:00;;;;;;;2.23;1.73;;;;;;;19.83;60.53;100880.47;4985826;28;102755;-63
2021/05/30 08:56:27;;;;;;;2.55;2.05;;;;;;;19.87;59.97;100892.50;4994948;28;102794;-63
2021/05/30 08:58:53;;;;;;;3.83;2.00;;;;;;;19.91;59.44;100896.22;5001746;28;104146;-66
2021/05/30 09:01:23;;;;;;;2.50;1.70;;;;;;;19.93;59.54;100891.16;5006532;28;103623;-63
2021/05/30 09:03:55;;;;;;;1.85;1.70;;;;;;;19.99;59.65;100893.75;4984567;28;102099;-63
2021/05/30 09:06:23;;;;;;;3.33;1.90;;;;;;;19.96;59.12;100888.91;4986784;28;103601;-64
2021/05/30 09:08:52;;;;;;;3.33;1.58;;;;;;;19.96;59.08;100884.19;4991960;28;104255;-63
2021/05/30 09:11:42;;;;;;;2.05;1.70;;;;;;;19.99;58.65;100889.03;4997653;28;102330;-63
2021/05/30 09:14:17;;;;;;;1.65;1.55;;;;;;;20.01;57.86;100886.75;4996806;28;101984;-63
2021/05/30 09:16:52;;;;;;;6.15;1.38;;;;;;;20.05;57.58;100892.41;4979770;28;102782;-61
2021/05/30 09:19:43;;;;;;;7.18;1.70;;;;;;;20.03;57.81;100895.53;5001256;28;103904;-63
2021/05/30 09:22:34;;;;;;;2.25;1.55;;;;;;;19.97;57.69;100882.22;4998465;28;102980;-63
2021/05/30 09:25:16;;;;;;;2.95;1.70;;;;;;;20.00;57.01;100887.09;4991748;28;102388;-63
2021/05/30 09:27:48;;;;;;;1.52;1.40;;;;;;;20.01;57.07;100888.69;5000430;28;102398;-63
2021/05/30 09:30:19;;;;;;;2.67;1.45;;;;;;;19.99;56.68;100885.47;4995348;28;103944;-62
2021/05/30 09:33:03;;;;;;;1.70;1.60;;;;;;;20.05;56.56;100895.19;4995729;28;102998;-62
2021/05/30 09:35:53;;;;;;;3.42;1.55;;;;;;;20.06;56.59;100888.53;4995645;28;102841;-62
2021/05/30 09:38:22;;;;;;;2.03;1.60;;;;;;;20.02;56.48;100887.59;4991988;28;102174;-63
2021/05/30 09:40:52;;;;;;;2.08;1.50;;;;;;;20.02;56.50;100888.38;4997561;28;103984;-63
2021/05/30 09:43:20;;;;;;;1.27;1.17;;;;;;;20.00;56.86;100890.66;4998564;28;102452;-63
2021/05/30 09:46:06;;;;;;;;;;;;;;;20.00;56.97;100885.13;5007813;28;103867;-63
2021/05/30 09:48:37;;;;;;;2.85;1.60;;;;;;;20.09;56.24;100887.88;4995293;28;102507;-63
2021/05/30 09:51:23;;;;;;;2.15;1.50;;;;;;;20.12;56.97;100892.72;4994462;28;103940;-62
2021/05/30 09:53:55;;;;;;;1.63;1.52;;;;;;;20.12;56.68;100887.19;4999693;28;103011;-62
2021/05/30 09:56:43;;;;;;;3.85;1.30;;;;;;;20.19;56.70;100883.91;5005493;28;102647;-62
2021/05/30 09:59:11;;;;;;;7.05;2.05;;;;;;;20.26;56.23;100896.06;5002570;28;102368;-62
2021/05/30 10:02:05;;;;;;;2.97;1.63;;;;;;;20.27;55.90;100889.41;4992589;28;103914;-62
2021/05/30 10:04:36;;;;;;;2.28;1.75;;;;;;;20.23;55.87;100899.53;5002177;28;102136;-63
2021/05/30 10:07:06;;;;;;;3.13;1.85;;;;;;;20.13;56.50;100897.94;4985383;28;103121;-62
2021/05/30 10:09:33;;;;;;;1.98;1.85;;;;;;;20.13;56.57;100899.88;4997491;28;102506;-63
2021/05/30 10:12:00;;;;;;;2.63;1.83;;;;;;;20.09;56.88;100898.94;4996553;28;103621;-63
2021/05/30 10:14:29;;;;;;;3.22;2.00;;;;;;;20.07;56.98;100895.69;5000772;28;102589;-63
2021/05/30 10:16:55;;;;;;;3.95;2.40;;;;;;;20.08;57.07;100897.28;5005901;28;102205;-63
2021/05/30 10:19:28;;;;;;;3.60;1.80;;;;;;;20.14;57.18;100896.78;4992972;28;102716;-62
2021/05/30 10:21:58;;;;;;;4.25;1.90;;;;;;;20.16;57.58;100899.22;4980337;28;103213;-62
2021/05/30 10:24:25;;;;;;;4.70;1.83;;;;;;;20.24;56.57;100894.81;4995985;28;102547;-62
2021/05/30 10:27:11;;;;;;;8.10;2.05;;;;;;;20.30;57.23;100898.97;5000262;28;102661;-63
2021/05/30 10:29:37;;;;;;;2.28;1.85;;;;;;;20.32;56.06;100891.19;4995975;28;102675;-63
2021/05/30 10:32:15;;;;;;;2.65;1.80;;;;;;;20.36;55.32;100905.94;5001838;28;102797;-62
2021/05/30 10:35:09;;;;;;;2.65;1.67;;;;;;;20.37;54.76;100894.53;4989720;28;102110;-62
2021/05/30 10:37:47;;;;;;;4.93;1.75;;;;;;;20.43;55.28;100877.78;4995244;28;102243;-63
2021/05/30 10:40:28;;;;;;;;;;;;;;;20.50;54.71;100891.94;5000979;28;102431;-63
2021/05/30 10:43:31;;;;;;;6.45;1.85;;;;;;;20.61;53.85;100882.91;4998430;28;103961;-63
2021/05/30 10:46:04;;;;;;;4.30;1.83;;;;;;;20.68;53.31;100887.91;4994379;28;102164;-63
2021/05/30 10:48:31;;;;;;;3.40;1.60;;;;;;;20.62;53.58;100886.47;4987943;28;102335;-63
2021/05/30 10:53:43;;;;;;;4.50;1.70;;;;;;;20.55;53.52;100886.19;5004118;28;103631;-63
2021/05/30 10:56:35;;;;;;;3.03;1.70;;;;;;;20.52;54.30;100889.63;4997703;28;102172;-64
2021/05/30 10:59:36;;;;;;;5.28;1.88;;;;;;;20.55;54.23;100884.22;4986752;28;102732;-60
2021/05/30 11:02:12;;;;;;;3.08;1.52;;;;;;;20.53;54.66;100885.72;5003536;28;103814;-60
2021/05/30 11:04:39;;;;;;;4.50;1.80;;;;;;;20.54;54.18;100879.03;4975691;28;103749;-60
2021/05/30 11:07:31;;;;;;;5.93;4.00;;;;;;;20.59;54.02;100881.59;4997693;28;102267;-60
2021/05/30 11:10:09;;;;;;;5.95;2.20;;;;;;;20.54;54.04;100881.81;4997928;28;102766;-60
2021/05/30 11:12:48;;;;;;;22.92;16.27;;;;;;;20.51;54.03;100882.47;5007526;28;102452;-60
2021/05/30 11:15:31;;;;;;;7.95;5.93;;;;;;;20.46;54.53;100879.88;4993768;28;104090;-60
2021/05/30 11:18:01;;;;;;;3.97;3.67;;;;;;;20.44;54.04;100882.16;5003389;28;102141;-59
2021/05/30 11:20:43;;;;;;;5.72;3.08;;;;;;;20.49;53.94;100880.03;5003415;28;102472;-60
2021/05/30 11:23:12;;;;;;;17.85;4.47;;;;;;;20.51;54.88;100888.00;4999553;28;102183;-59
2021/05/30 11:25:48;;;;;;;10.25;3.58;;;;;;;20.52;54.07;100886.84;4995400;28;104003;-59
2021/05/30 11:28:16;;;;;;;7.28;2.47;;;;;;;20.50;53.70;100881.66;4989017;28;102367;-59
2021/05/30 11:30:52;;;;;;;7.50;2.50;;;;;;;20.53;53.90;100891.25;5014781;28;102559;-59
2021/05/30 11:33:43;;;;;;;14.73;11.50;;;;;;;20.58;53.24;100882.75;4999269;28;102484;-60